Sedbergh, United Kingdom
Current Conditions -  °F | °C
As of 5:50 AM on Tuesday 21 Oct 2014 (Local Time) from EGXE Reporting Station
Light Rain Light Rain  
Wind Chill: 54°   Ceiling: 2100
Heat Index: 54°   Visibility: 4mi
Dew Point: 52°   Wind: 18mph
Humidity: 94%   Direction: 190°S
Pressure: 29.21"   Gusts: NA
Location:  54.32°N, 2.53°W
Report Text: EGXE 210450Z AUTO 19016KT 7000 -RA BKN021/// 12/11 Q0989
Loading
Personal Weather Stations






























Interactive Weather Map
Tropical Storm Tracking
New forecast layout! Learn more

10-Day Weather Forecast

Advertisements
Track Severe Weather on mobile